Cochranton, PA (16314)

Sagat: 1:23 AM EST Sene: Noýabr 19, 2017 (GMT -0500)
Cochranton PA | | Change Station
Active Advisory: Wind Advisory

Elev 1056 ft 41.52 °N, 80.05 °W | Updated 1 second ago

Ýagysly
Ýagysly
41.0 ° F
Feels Like 37 ° F
N
5.4
Ýel Üýtgäp Durýan Ýel from GBDGGB
Gusts 7.6 mps

Su Gün
High -- | Low -- ° F
--% Chance of Precip.
Yesterday
High -- | Low -- ° F
Precip. -- duým (inlis birl.)
Basys 29.29 duým (inlis birl.)
Görüs Uzaklygy 6.0 mil
Clouds Ýapyk Howaly 700 ft
Ýelin baglylygy bilen temperatura 37 ° F
Çyglylyk 38 ° F
Ygal 89%
Rainfall 0.05 duým (inlis birl.)
Snow Depth Not available.
7:14 AM 4:56 PM
New, 1% visible
METAR KGKJ 190553Z AUTO 31019G30KT 6SM -RA BR OVC007 03/03 A2927 RMK AO2 PK WND 31031/0505 CIG 006V012 SLP916 P0003 60043 T00330033 10122 20033 53048
Basys 29.29 duým (inlis birl.)
Görüs Uzaklygy 6.0 mil
Clouds Ýapyk Howaly 700 ft
Ýelin baglylygy bilen temperatura 37 ° F
Çyglylyk 38 ° F
Ygal 89%
Rainfall 0.05 duým (inlis birl.)
Snow Depth Not available.
7:14 AM 4:56 PM
New, 1% visible
METAR KGKJ 190553Z AUTO 31019G30KT 6SM -RA BR OVC007 03/03 A2927 RMK AO2 PK WND 31031/0505 CIG 006V012 SLP916 P0003 60043 T00330033 10122 20033 53048

Get Your Daily Forecast Email!

Thanks for signing up!

Be on the lookout for a verification email in your inbox.

You'll start receiving severe weather alerts in your inbox..

×

10-Day Weather Forecast

Almanac

Astronomy

Nov. 19, 2017 Rise Set
Actual Time
Civil Twilight
Nautical Twilight
Astronomical Twilight
Length Of Visible Light
Length of Day
Tomorrow will be .
, % of the Moon is Illuminated

Today's Extremes

State Highs State Lows

Community

WunderPhotos

Category 6

Welcome to Category 6. This is the collective home for Weather Underground's featured writeups by Dr. Jeff Masters (right), Bob Henson (left), Chris Burt, and other regular contributors.

Nearby

Air Quality

  Air Quality AQ Index Pollutant
Not available.

Gar çunlygy

Station Depth Elevation

Earthquake Activity

Säher Distance Mag. Time & Date
Minimum magnitude displayed is 2.5.

Coastal Water Temperatures

Säheri Temperatura

Stations

Nearby Weather Stations

Station Location Ýagdaý Ýelin baglylygy bilen temperatura Çyglylyk Ygal Ýel Precip. Elev Täzelendi Type
                   

Watches & Warnings

Wind Advisory
Issued: 9:40 PM EST Nov. 18, 2017 – National Weather Service

... Wind Advisory remains in effect until 10 am EST Sunday...

* timing... tonight and early Sunday.

* Winds... northwest at 20 to 35 mph. Wind gusts to 50 mph are
possible.

* Impacts... downed branches and power lines. Objects that are
not secured such as trash cans or lawn furniture may be blown
away.

Precautionary/preparedness actions...

Winds of this magnitude can cause minor property damage without
extra precautions. Motorists should use caution especially
motorists in high profile vehicles.